createdAt,value
2018-07-27T00:00:23.817Z,9.30
2018-07-27T00:00:58.013Z,8.87
2018-07-27T00:01:31.927Z,8.60
2018-07-27T00:02:06.122Z,8.67
2018-07-27T00:02:40.742Z,8.00
2018-07-27T00:03:14.645Z,9.90
2018-07-27T00:03:48.495Z,9.00
2018-07-27T00:04:22.371Z,9.50
2018-07-27T00:04:56.235Z,9.57
2018-07-27T00:05:30.067Z,9.00
2018-07-27T00:06:04.245Z,9.70
2018-07-27T00:06:38.111Z,9.67
2018-07-27T00:07:11.721Z,8.80
2018-07-27T00:07:45.838Z,9.10
2018-07-27T00:08:19.803Z,9.53
2018-07-27T00:08:53.685Z,8.20
2018-07-27T00:09:27.514Z,8.40
2018-07-27T00:10:01.384Z,9.17
2018-07-27T00:10:34.989Z,9.07
2018-07-27T00:11:08.751Z,9.50
2018-07-27T00:11:43.303Z,9.03
2018-07-27T00:12:17.156Z,8.83
2018-07-27T00:12:50.808Z,8.50
2018-07-27T00:13:24.555Z,8.90
2018-07-27T00:13:58.407Z,8.93
2018-07-27T00:14:32.219Z,9.17
2018-07-27T00:15:06.065Z,8.90
2018-07-27T00:15:39.911Z,9.00
2018-07-27T00:16:13.531Z,8.33
2018-07-27T00:16:47.269Z,9.03
2018-07-27T00:17:21.083Z,8.83
2018-07-27T00:17:55.160Z,9.20
2018-07-27T00:18:29.025Z,8.80
2018-07-27T00:19:03.114Z,8.90
2018-07-27T00:19:37.294Z,9.30
2018-07-27T00:20:11.502Z,9.37
2018-07-27T00:20:45.413Z,9.40
2018-07-27T00:21:19.647Z,9.83
2018-07-27T00:21:54.178Z,9.00
2018-07-27T00:22:28.037Z,8.83
2018-07-27T00:23:01.909Z,9.30
2018-07-27T00:23:35.821Z,9.43
2018-07-27T00:24:09.677Z,10.27
2018-07-27T00:24:43.277Z,8.67
2018-07-27T00:25:17.029Z,9.30
2018-07-27T00:25:50.855Z,9.37
2018-07-27T00:26:24.809Z,9.67
2018-07-27T00:26:58.660Z,9.23
2018-07-27T00:27:32.471Z,9.20
2018-07-27T00:28:06.350Z,10.13
2018-07-27T00:28:40.537Z,8.77
2018-07-27T00:29:14.364Z,9.07
2018-07-27T00:29:48.242Z,9.20
2018-07-27T00:30:22.111Z,9.33
2018-07-27T00:30:56.643Z,9.10
2018-07-27T00:31:30.484Z,8.33
2018-07-27T00:32:04.364Z,9.83
2018-07-27T00:32:38.173Z,8.50
2018-07-27T00:33:12.269Z,8.80
2018-07-27T00:33:46.337Z,9.00
2018-07-27T00:34:20.199Z,8.97
2018-07-27T00:34:54.044Z,9.70
2018-07-27T00:35:28.614Z,8.23
2018-07-27T00:36:02.803Z,8.97
2018-07-27T00:36:36.857Z,9.60
2018-07-27T00:37:11.041Z,9.60
2018-07-27T00:37:45.241Z,8.57
2018-07-27T00:38:19.783Z,8.83
2018-07-27T00:38:53.748Z,8.80
2018-07-27T00:39:27.697Z,8.77
2018-07-27T00:40:01.313Z,8.10
2018-07-27T00:40:35.470Z,8.57
2018-07-27T00:41:10.025Z,7.90
2018-07-27T00:41:44.226Z,8.10
2018-07-27T00:42:18.961Z,7.90
2018-07-27T00:42:53.177Z,8.10
2018-07-27T00:43:27.485Z,8.60
2018-07-27T00:44:01.379Z,8.83
2018-07-27T00:44:35.244Z,8.90
2018-07-27T00:45:09.488Z,8.90
2018-07-27T00:45:43.702Z,8.40
2018-07-27T00:46:17.553Z,8.63
2018-07-27T00:46:51.415Z,9.10
2018-07-27T00:47:25.274Z,7.50
2018-07-27T00:47:59.165Z,8.90
2018-07-27T00:48:33.068Z,8.40
2018-07-27T00:49:07.610Z,8.23
2018-07-27T00:49:41.852Z,8.33
2018-07-27T00:50:16.046Z,7.80
2018-07-27T00:50:49.913Z,7.33
2018-07-27T00:51:23.783Z,8.70
2018-07-27T00:51:57.971Z,8.00
2018-07-27T00:52:31.836Z,8.17
2018-07-27T00:53:05.698Z,8.47
2018-07-27T00:53:39.594Z,8.60
2018-07-27T00:54:13.782Z,7.67
2018-07-27T00:54:47.646Z,8.40
2018-07-27T00:55:21.484Z,8.17
2018-07-27T00:55:55.718Z,8.80
2018-07-27T00:56:29.934Z,9.10
2018-07-27T00:57:04.164Z,8.43
2018-07-27T00:57:38.034Z,8.47
2018-07-27T00:58:11.914Z,8.10
2018-07-27T00:58:46.026Z,8.20
2018-07-27T00:59:19.891Z,8.40
2018-07-27T00:59:53.770Z,8.20
2018-07-27T01:00:27.660Z,8.10
2018-07-27T01:01:01.862Z,8.20
2018-07-27T01:01:35.702Z,8.27
2018-07-27T01:02:09.915Z,9.03
2018-07-27T01:02:43.820Z,8.23
2018-07-27T01:03:18.177Z,8.77
2018-07-27T01:03:52.068Z,8.63
2018-07-27T01:04:26.184Z,8.53
2018-07-27T01:05:00.062Z,8.07
2018-07-27T01:05:34.283Z,8.17
2018-07-27T01:06:08.826Z,8.40
2018-07-27T01:06:42.706Z,9.30
2018-07-27T01:07:16.562Z,8.17
2018-07-27T01:07:50.802Z,10.03
2018-07-27T01:08:25.010Z,8.40
2018-07-27T01:08:58.941Z,8.63
2018-07-27T01:09:32.813Z,9.50
2018-07-27T01:10:06.944Z,8.87
2018-07-27T01:10:41.164Z,8.53
2018-07-27T01:11:15.035Z,8.63
2018-07-27T01:11:49.600Z,9.37
2018-07-27T01:12:23.476Z,9.27
2018-07-27T01:12:57.310Z,8.87
2018-07-27T01:13:31.530Z,8.20
2018-07-27T01:14:05.596Z,9.30
2018-07-27T01:14:39.442Z,8.80
2018-07-27T01:15:13.665Z,9.07
2018-07-27T01:15:47.543Z,9.17
2018-07-27T01:16:21.417Z,9.90
2018-07-27T01:16:55.337Z,9.10
2018-07-27T01:17:29.224Z,9.50
2018-07-27T01:18:03.420Z,8.87
2018-07-27T01:18:37.303Z,9.20
2018-07-27T01:19:11.523Z,9.10
2018-07-27T01:19:45.465Z,10.00
2018-07-27T01:20:19.346Z,9.87
2018-07-27T01:20:53.208Z,9.33
2018-07-27T01:21:27.438Z,8.97
2018-07-27T01:22:01.324Z,8.67
2018-07-27T01:22:35.180Z,9.10
2018-07-27T01:23:08.938Z,9.53
2018-07-27T01:23:42.464Z,9.53
2018-07-27T01:24:16.289Z,9.20
2018-07-27T01:24:50.941Z,9.27
2018-07-27T01:25:25.156Z,10.20
2018-07-27T01:25:59.404Z,9.30
2018-07-27T01:26:33.282Z,9.10
2018-07-27T01:27:07.179Z,9.20
2018-07-27T01:27:41.357Z,9.40
2018-07-27T01:28:15.222Z,8.80
2018-07-27T01:28:48.856Z,10.07
2018-07-27T01:29:22.637Z,10.17
2018-07-27T01:29:56.865Z,10.00
2018-07-27T01:30:30.730Z,9.70
2018-07-27T01:31:04.940Z,9.13
2018-07-27T01:31:38.802Z,9.33
2018-07-27T01:32:12.783Z,9.10
2018-07-27T01:32:46.648Z,9.87
2018-07-27T01:33:20.375Z,10.57
2018-07-27T01:33:54.002Z,10.30
2018-07-27T01:34:27.786Z,9.03
2018-07-27T01:35:02.273Z,8.80
2018-07-27T01:35:36.120Z,9.07
2018-07-27T01:36:10.407Z,10.63
2018-07-27T01:36:44.727Z,9.47
2018-07-27T01:37:18.595Z,9.13
2018-07-27T01:37:52.879Z,9.13
2018-07-27T01:38:26.769Z,9.70
2018-07-27T01:39:00.397Z,10.00
2018-07-27T01:39:34.221Z,9.00
2018-07-27T01:40:08.461Z,9.20
2018-07-27T01:40:42.322Z,10.30
2018-07-27T01:41:16.273Z,9.70
2018-07-27T01:41:50.114Z,9.03
2018-07-27T01:42:24.014Z,8.17
2018-07-27T01:42:57.853Z,9.03
2018-07-27T01:43:31.738Z,8.37
2018-07-27T01:44:05.605Z,8.70
2018-07-27T01:44:39.255Z,9.40
2018-07-27T01:45:13.042Z,9.57
2018-07-27T01:45:47.249Z,8.97
2018-07-27T01:46:21.469Z,9.07
2018-07-27T01:46:55.329Z,9.37
2018-07-27T01:47:29.240Z,9.67
2018-07-27T01:48:03.140Z,9.70
2018-07-27T01:48:37.054Z,8.67
2018-07-27T01:49:11.331Z,8.90
2018-07-27T01:49:45.227Z,9.33
2018-07-27T01:50:19.787Z,9.20
2018-07-27T01:50:54.662Z,9.23
2018-07-27T01:51:28.575Z,9.10
2018-07-27T01:52:02.464Z,9.83
2018-07-27T01:52:36.674Z,10.27
2018-07-27T01:53:10.597Z,9.03
2018-07-27T01:53:44.445Z,8.67
2018-07-27T01:54:18.305Z,9.73
2018-07-27T01:54:52.343Z,8.73
2018-07-27T01:55:26.241Z,8.97
2018-07-27T01:56:00.441Z,9.57
2018-07-27T01:56:34.523Z,8.80
2018-07-27T01:57:08.746Z,8.60
2018-07-27T01:57:42.943Z,8.97
2018-07-27T01:58:17.137Z,9.37
2018-07-27T01:58:51.029Z,9.03
2018-07-27T01:59:25.248Z,8.67
2018-07-27T01:59:59.139Z,9.57
2018-07-27T02:00:33.030Z,8.83
2018-07-27T02:01:07.268Z,9.40
2018-07-27T02:01:41.463Z,9.47
2018-07-27T02:02:15.689Z,8.30
2018-07-27T02:02:49.725Z,10.03
2018-07-27T02:03:23.733Z,8.77
2018-07-27T02:03:57.604Z,9.53
2018-07-27T02:04:32.060Z,8.73
2018-07-27T02:05:06.629Z,9.70
2018-07-27T02:05:40.502Z,8.80
2018-07-27T02:06:14.395Z,9.23
2018-07-27T02:06:48.328Z,8.70
2018-07-27T02:07:22.588Z,9.10
2018-07-27T02:07:56.444Z,9.20
2018-07-27T02:08:30.273Z,9.37
2018-07-27T02:09:07.626Z,8.80
2018-07-27T02:09:41.504Z,8.10
2018-07-27T02:10:15.426Z,8.70
2018-07-27T02:10:49.311Z,9.83
2018-07-27T02:11:23.627Z,9.07
2018-07-27T02:11:57.471Z,8.83
2018-07-27T02:12:31.332Z,9.03
2018-07-27T02:13:05.203Z,9.70
2018-07-27T02:13:39.386Z,9.97
2018-07-27T02:14:13.218Z,8.43
2018-07-27T02:14:47.412Z,8.83
2018-07-27T02:15:21.509Z,9.40
2018-07-27T02:15:55.697Z,9.40
2018-07-27T02:16:30.236Z,9.30
2018-07-27T02:17:04.761Z,9.73
2018-07-27T02:17:38.963Z,9.23
2018-07-27T02:18:12.815Z,8.80
2018-07-27T02:18:47.015Z,9.37
2018-07-27T02:19:20.921Z,8.60
2018-07-27T02:19:55.023Z,9.13
2018-07-27T02:20:28.955Z,9.73
2018-07-27T02:21:02.826Z,9.03
2018-07-27T02:21:36.694Z,9.13
2018-07-27T02:22:10.585Z,9.57
2018-07-27T02:22:44.441Z,9.07
2018-07-27T02:23:18.624Z,8.50
2018-07-27T02:23:52.846Z,9.80
2018-07-27T02:24:26.721Z,9.90
2018-07-27T02:25:00.588Z,9.57
2018-07-27T02:25:34.861Z,9.57
2018-07-27T02:26:08.734Z,9.80
2018-07-27T02:26:42.950Z,9.03
2018-07-27T02:27:17.129Z,10.33
2018-07-27T02:27:51.019Z,10.60
2018-07-27T02:28:24.883Z,9.67
2018-07-27T02:28:58.724Z,10.57
2018-07-27T02:29:32.575Z,10.40
2018-07-27T02:30:06.443Z,9.87
2018-07-27T02:30:40.330Z,9.83
2018-07-27T02:31:14.170Z,9.87
2018-07-27T02:31:48.032Z,10.30
2018-07-27T02:32:21.911Z,9.60
2018-07-27T02:32:55.775Z,10.40
2018-07-27T02:33:29.635Z,9.70
2018-07-27T02:34:03.504Z,10.40
2018-07-27T02:34:37.668Z,10.40
2018-07-27T02:35:12.170Z,11.50
2018-07-27T02:35:46.066Z,10.90
2018-07-27T02:36:20.249Z,10.77
2018-07-27T02:36:54.106Z,10.40
2018-07-27T02:37:27.996Z,10.10
2018-07-27T02:38:01.845Z,10.63
2018-07-27T02:38:36.068Z,10.23
2018-07-27T02:39:10.998Z,10.50
2018-07-27T02:39:44.854Z,10.20
2018-07-27T02:40:19.060Z,10.90
2018-07-27T02:40:53.298Z,10.37
2018-07-27T02:41:26.996Z,11.00
2018-07-27T02:42:00.587Z,11.07
2018-07-27T02:42:34.660Z,10.80
2018-07-27T02:43:08.508Z,10.40
2018-07-27T02:43:42.740Z,11.23
2018-07-27T02:44:16.950Z,11.77
2018-07-27T02:44:50.815Z,10.93
2018-07-27T02:45:24.674Z,10.10
2018-07-27T02:45:58.705Z,12.00
2018-07-27T02:46:32.771Z,10.10
2018-07-27T02:47:06.967Z,10.87
2018-07-27T02:47:44.520Z,10.97
2018-07-27T02:48:18.310Z,11.33
2018-07-27T02:48:52.552Z,12.43
2018-07-27T02:49:26.753Z,11.93
2018-07-27T02:50:00.631Z,11.90
2018-07-27T02:50:34.828Z,10.70
2018-07-27T02:51:09.584Z,11.33
2018-07-27T02:51:43.589Z,11.10
2018-07-27T02:52:18.100Z,10.60
2018-07-27T02:52:51.977Z,11.13
2018-07-27T02:53:25.842Z,10.50
2018-07-27T02:53:59.738Z,10.90
2018-07-27T02:54:33.370Z,11.20
2018-07-27T02:55:07.221Z,11.03
2018-07-27T02:55:41.078Z,11.73
2018-07-27T02:56:14.937Z,11.37
2018-07-27T02:56:49.144Z,10.90
2018-07-27T02:57:23.040Z,10.73
2018-07-27T02:57:56.921Z,10.80
2018-07-27T02:58:31.440Z,11.50
2018-07-27T02:59:05.645Z,10.77
2018-07-27T02:59:39.503Z,10.93
2018-07-27T03:00:13.144Z,11.20
2018-07-27T03:00:46.934Z,11.37
2018-07-27T03:01:20.844Z,10.93
2018-07-27T03:01:54.738Z,11.70
2018-07-27T03:02:28.651Z,10.67
2018-07-27T03:03:02.846Z,11.10
2018-07-27T03:03:36.702Z,10.73
2018-07-27T03:04:10.924Z,11.40
2018-07-27T03:04:45.104Z,10.40
2018-07-27T03:05:19.010Z,11.60
2018-07-27T03:05:52.872Z,10.83
2018-07-27T03:06:26.563Z,11.03
2018-07-27T03:07:00.297Z,11.23
2018-07-27T03:07:34.602Z,11.00
2018-07-27T03:08:09.094Z,10.87
2018-07-27T03:08:43.237Z,11.77
2018-07-27T03:09:17.110Z,11.60
2018-07-27T03:09:50.998Z,11.10
2018-07-27T03:10:25.422Z,11.30
2018-07-27T03:10:59.770Z,10.80
2018-07-27T03:11:33.450Z,11.80
2018-07-27T03:12:06.978Z,11.30
2018-07-27T03:12:41.142Z,11.20
2018-07-27T03:13:14.766Z,10.60
2018-07-27T03:13:48.848Z,11.60
2018-07-27T03:14:22.714Z,11.67
2018-07-27T03:14:56.618Z,10.50
2018-07-27T03:15:30.575Z,10.93
2018-07-27T03:16:04.651Z,10.40
2018-07-27T03:16:38.574Z,10.77
2018-07-27T03:17:12.762Z,10.47
2018-07-27T03:17:46.676Z,11.10
2018-07-27T03:18:20.872Z,11.97
2018-07-27T03:18:54.760Z,11.50
2018-07-27T03:19:28.655Z,11.50
2018-07-27T03:20:02.883Z,11.43
2018-07-27T03:20:36.746Z,11.90
2018-07-27T03:21:10.946Z,11.17
2018-07-27T03:21:45.484Z,11.97
2018-07-27T03:22:19.374Z,11.80
2018-07-27T03:22:53.246Z,12.37
2018-07-27T03:23:27.132Z,11.43
2018-07-27T03:24:01.067Z,11.57
2018-07-27T03:24:35.271Z,11.30
2018-07-27T03:25:09.433Z,10.90
2018-07-27T03:25:43.292Z,11.60
2018-07-27T03:26:17.483Z,10.37
2018-07-27T03:26:51.406Z,11.47
2018-07-27T03:27:25.612Z,11.33
2018-07-27T03:27:59.869Z,11.83
2018-07-27T03:28:34.116Z,11.83
2018-07-27T03:29:07.962Z,11.90
2018-07-27T03:29:42.152Z,11.30
2018-07-27T03:30:16.727Z,12.80
2018-07-27T03:30:50.948Z,11.27
2018-07-27T03:31:24.920Z,13.00
2018-07-27T03:31:58.836Z,10.97
2018-07-27T03:32:32.730Z,11.90
2018-07-27T03:33:06.982Z,12.17
2018-07-27T03:33:41.026Z,11.97
2018-07-27T03:34:18.058Z,12.00
2018-07-27T03:34:52.420Z,12.20
2018-07-27T03:35:26.252Z,11.20
2018-07-27T03:36:00.134Z,11.20
2018-07-27T03:36:33.984Z,12.33
2018-07-27T03:37:07.886Z,12.70
2018-07-27T03:37:41.772Z,12.03
2018-07-27T03:38:16.040Z,12.10
2018-07-27T03:38:49.995Z,11.90
2018-07-27T03:39:23.860Z,11.50
2018-07-27T03:39:57.742Z,11.80
2018-07-27T03:40:31.946Z,11.47
2018-07-27T03:41:05.799Z,11.97
2018-07-27T03:41:39.702Z,12.77
2018-07-27T03:42:13.631Z,11.80
2018-07-27T03:42:48.035Z,11.90
2018-07-27T03:43:21.922Z,12.40
2018-07-27T03:43:55.884Z,11.50
2018-07-27T03:44:30.073Z,12.40
2018-07-27T03:45:03.944Z,11.53
2018-07-27T03:45:38.152Z,12.30
2018-07-27T03:46:12.391Z,13.23
2018-07-27T03:46:46.580Z,12.70
2018-07-27T03:47:20.481Z,11.60
2018-07-27T03:47:54.328Z,11.63
2018-07-27T03:48:28.211Z,11.60
2018-07-27T03:49:02.076Z,10.97
2018-07-27T03:49:35.758Z,11.70
2018-07-27T03:50:09.516Z,11.27
2018-07-27T03:50:43.712Z,10.40
2018-07-27T03:51:17.574Z,11.00
2018-07-27T03:51:52.100Z,11.83
2018-07-27T03:52:26.395Z,10.90
2018-07-27T03:53:00.606Z,11.47
2018-07-27T03:53:34.467Z,10.53
2018-07-27T03:54:09.000Z,10.30
2018-07-27T03:54:42.868Z,10.57
2018-07-27T03:55:16.739Z,10.10
2018-07-27T03:55:50.948Z,9.60
2018-07-27T03:56:24.798Z,9.83
2018-07-27T03:56:58.644Z,9.73
2018-07-27T03:57:32.862Z,10.23
2018-07-27T03:58:07.072Z,8.57
2018-07-27T03:58:41.616Z,9.77
2018-07-27T03:59:15.812Z,9.93
2018-07-27T03:59:49.668Z,8.13
2018-07-27T04:00:23.562Z,8.00
2018-07-27T04:00:57.431Z,8.70
2018-07-27T04:01:31.788Z,8.17
2018-07-27T04:02:05.661Z,8.17
2018-07-27T04:02:39.900Z,8.37
2018-07-27T04:03:13.781Z,7.93
2018-07-27T04:03:47.665Z,8.20
2018-07-27T04:04:22.177Z,8.37
2018-07-27T04:04:56.021Z,8.43
2018-07-27T04:05:29.872Z,8.40
2018-07-27T04:06:03.738Z,8.20
2018-07-27T04:06:37.570Z,8.40
2018-07-27T04:07:11.444Z,7.40
2018-07-27T04:07:45.502Z,8.70
2018-07-27T04:08:19.344Z,8.17
2018-07-27T04:08:53.184Z,8.87
2018-07-27T04:09:27.036Z,8.57
2018-07-27T04:10:01.290Z,7.57
2018-07-27T04:10:35.173Z,8.60
2018-07-27T04:11:09.021Z,8.03
2018-07-27T04:11:43.210Z,8.13
2018-07-27T04:12:17.436Z,8.30
2018-07-27T04:12:51.290Z,8.70
2018-07-27T04:13:25.167Z,8.40
2018-07-27T04:13:59.006Z,8.30
2018-07-27T04:14:32.862Z,8.23
2018-07-27T04:15:06.493Z,8.20
2018-07-27T04:15:40.454Z,8.27
2018-07-27T04:16:14.081Z,7.50
2018-07-27T04:16:47.833Z,8.13
2018-07-27T04:17:21.742Z,8.10
2018-07-27T04:18:00.312Z,8.20
2018-07-27T04:18:34.515Z,7.47
2018-07-27T04:19:08.356Z,8.27
2018-07-27T04:19:42.187Z,7.47
2018-07-27T04:20:16.132Z,8.80
2018-07-27T04:20:49.964Z,7.50
2018-07-27T04:21:24.142Z,7.30
2018-07-27T04:21:58.005Z,8.30
2018-07-27T04:22:31.863Z,7.43
2018-07-27T04:23:06.510Z,7.43
2018-07-27T04:23:40.113Z,7.70
2018-07-27T04:24:13.856Z,7.63
2018-07-27T04:24:48.033Z,7.77
2018-07-27T04:25:21.874Z,7.33
2018-07-27T04:25:55.512Z,8.00
2018-07-27T04:26:29.297Z,7.03
2018-07-27T04:27:03.499Z,7.50
2018-07-27T04:27:37.365Z,7.90
2018-07-27T04:28:11.272Z,7.63
2018-07-27T04:28:45.113Z,8.20
2018-07-27T04:29:19.007Z,7.43
2018-07-27T04:29:53.262Z,7.60
2018-07-27T04:30:27.140Z,7.50
2018-07-27T04:31:01.329Z,8.23
2018-07-27T04:31:37.049Z,7.13
2018-07-27T04:32:10.903Z,8.03
2018-07-27T04:32:44.773Z,8.37
2018-07-27T04:33:18.643Z,7.30
2018-07-27T04:33:52.456Z,7.07
2018-07-27T04:34:26.317Z,6.90
2018-07-27T04:35:00.489Z,6.80
2018-07-27T04:35:34.358Z,6.87
2018-07-27T04:36:08.583Z,6.90
2018-07-27T04:36:42.503Z,7.10
2018-07-27T04:37:16.348Z,6.93
2018-07-27T04:37:50.701Z,6.80
2018-07-27T04:38:24.597Z,7.90
2018-07-27T04:38:58.499Z,7.23
2018-07-27T04:39:32.321Z,7.80
2018-07-27T04:40:06.313Z,7.40
2018-07-27T04:40:40.192Z,7.17
2018-07-27T04:41:14.676Z,7.40
2018-07-27T04:41:48.860Z,7.37
2018-07-27T04:42:22.712Z,6.93
2018-07-27T04:42:56.909Z,7.53
2018-07-27T04:43:30.981Z,7.03
2018-07-27T04:44:04.822Z,6.93
2018-07-27T04:44:39.504Z,7.20
2018-07-27T04:45:14.070Z,6.40
2018-07-27T04:45:50.484Z,7.30
2018-07-27T04:46:24.680Z,7.30
2018-07-27T04:47:00.982Z,6.90
2018-07-27T04:47:35.376Z,7.53
2018-07-27T04:48:11.484Z,7.27
2018-07-27T04:48:45.196Z,6.70
2018-07-27T04:49:19.319Z,7.87
2018-07-27T04:49:53.340Z,6.57
2018-07-27T04:50:27.591Z,7.73
2018-07-27T04:51:01.461Z,7.60
2018-07-27T04:51:35.374Z,6.90
2018-07-27T04:52:09.263Z,6.93
2018-07-27T04:52:43.094Z,7.20
2018-07-27T04:53:16.948Z,7.23
2018-07-27T04:53:51.960Z,7.07
2018-07-27T04:54:25.792Z,7.57
2018-07-27T04:55:02.200Z,6.77
2018-07-27T04:55:38.822Z,6.60
2018-07-27T04:56:13.318Z,7.50
2018-07-27T04:56:47.566Z,6.93
2018-07-27T04:57:21.944Z,7.00
2018-07-27T04:57:56.541Z,6.30
2018-07-27T04:58:30.706Z,6.70
2018-07-27T04:59:04.956Z,7.37
2018-07-27T04:59:38.770Z,7.57
2018-07-27T05:00:12.638Z,6.57
2018-07-27T05:00:46.503Z,7.10
2018-07-27T05:01:21.145Z,7.20
2018-07-27T05:01:54.996Z,6.53
2018-07-27T05:02:29.314Z,6.70
2018-07-27T05:03:03.497Z,7.80
2018-07-27T05:03:37.377Z,6.67
2018-07-27T05:04:11.245Z,7.27
2018-07-27T05:04:45.095Z,6.70
2018-07-27T05:05:19.148Z,6.97
2018-07-27T05:05:52.986Z,6.73
2018-07-27T05:06:27.162Z,7.10
2018-07-27T05:07:01.829Z,6.47
2018-07-27T05:07:35.877Z,6.33
2018-07-27T05:08:10.034Z,6.80
2018-07-27T05:08:49.325Z,6.53
2018-07-27T05:09:23.812Z,6.20
2018-07-27T05:09:57.728Z,6.27
2018-07-27T05:10:37.071Z,6.53
2018-07-27T05:11:11.606Z,7.47
2018-07-27T05:11:45.906Z,6.97
2018-07-27T05:12:19.984Z,6.17
2018-07-27T05:12:53.844Z,6.70
2018-07-27T05:13:27.928Z,6.37
2018-07-27T05:14:02.042Z,6.40
2018-07-27T05:14:36.316Z,6.47
2018-07-27T05:15:10.429Z,7.10
2018-07-27T05:15:45.324Z,6.37
2018-07-27T05:16:19.190Z,6.67
2018-07-27T05:16:53.088Z,6.30
2018-07-27T05:17:26.926Z,7.10
2018-07-27T05:18:01.102Z,6.40
2018-07-27T05:18:35.270Z,6.70
2018-07-27T05:19:09.202Z,6.83
2018-07-27T05:19:43.204Z,6.63
2018-07-27T05:20:17.408Z,6.37
2018-07-27T05:20:51.266Z,6.70
2018-07-27T05:21:25.144Z,6.50
2018-07-27T05:21:59.320Z,7.10
2018-07-27T05:22:33.204Z,7.40
2018-07-27T05:23:07.764Z,6.30
2018-07-27T05:23:41.622Z,6.43
2018-07-27T05:24:15.486Z,6.27
2018-07-27T05:24:49.710Z,5.90
2018-07-27T05:25:23.954Z,5.80
2018-07-27T05:25:58.164Z,6.90
2018-07-27T05:26:32.492Z,6.30
2018-07-27T05:27:06.716Z,6.67
2018-07-27T05:27:40.641Z,6.03
2018-07-27T05:28:14.852Z,6.90
2018-07-27T05:28:49.032Z,6.23
2018-07-27T05:29:22.917Z,5.83
2018-07-27T05:29:57.127Z,6.23
2018-07-27T05:30:31.330Z,6.17
2018-07-27T05:31:05.786Z,6.30
2018-07-27T05:31:39.619Z,6.43
2018-07-27T05:32:13.495Z,5.87
2018-07-27T05:32:47.353Z,5.73
2018-07-27T05:33:21.870Z,6.90
2018-07-27T05:33:55.717Z,6.97
2018-07-27T05:34:29.581Z,5.80
2018-07-27T05:35:03.580Z,6.57
2018-07-27T05:35:37.783Z,5.97
2018-07-27T05:36:11.648Z,6.00
2018-07-27T05:36:45.526Z,5.60
2018-07-27T05:37:19.398Z,7.00
2018-07-27T05:37:53.281Z,6.97
2018-07-27T05:38:27.817Z,6.13
2018-07-27T05:39:01.659Z,6.50
2018-07-27T05:39:35.527Z,6.80
2018-07-27T05:40:09.726Z,6.70
2018-07-27T05:40:43.909Z,6.33
2018-07-27T05:41:18.083Z,6.93
2018-07-27T05:41:52.279Z,6.40
2018-07-27T05:42:26.113Z,6.63
2018-07-27T05:42:59.923Z,5.87
2018-07-27T05:43:34.149Z,6.33
2018-07-27T05:44:08.876Z,6.70
2018-07-27T05:44:42.773Z,6.33
2018-07-27T05:45:17.037Z,6.00
2018-07-27T05:45:51.004Z,6.47
2018-07-27T05:46:24.904Z,6.73
2018-07-27T05:46:59.164Z,6.23
2018-07-27T05:47:33.125Z,6.13
2018-07-27T05:48:07.285Z,6.33
2018-07-27T05:48:41.154Z,6.60
2018-07-27T05:49:15.476Z,6.73
2018-07-27T05:49:49.342Z,6.80
2018-07-27T05:50:23.229Z,7.50
2018-07-27T05:50:57.411Z,6.57
2018-07-27T05:51:31.633Z,6.30
2018-07-27T05:52:05.590Z,6.17
2018-07-27T05:52:39.520Z,6.80
2018-07-27T05:53:13.915Z,6.20
2018-07-27T05:53:48.113Z,5.90
2018-07-27T05:54:24.573Z,6.40
2018-07-27T05:54:58.421Z,6.00
2018-07-27T05:55:32.393Z,6.60
2018-07-27T05:56:06.639Z,6.13
2018-07-27T05:56:41.130Z,6.37
2018-07-27T05:57:15.637Z,6.33
2018-07-27T05:57:49.798Z,6.33
2018-07-27T05:58:23.957Z,6.00
2018-07-27T05:58:58.109Z,6.80
2018-07-27T05:59:31.981Z,6.70
2018-07-27T06:00:06.994Z,6.17
2018-07-27T06:00:41.153Z,6.80
2018-07-27T06:01:15.435Z,5.90
2018-07-27T06:01:49.781Z,5.87
2018-07-27T06:02:23.979Z,6.80
2018-07-27T06:02:58.547Z,6.17
2018-07-27T06:03:33.539Z,6.30
2018-07-27T06:04:07.703Z,6.10
2018-07-27T06:04:41.620Z,6.50
2018-07-27T06:05:15.631Z,6.13
2018-07-27T06:05:49.882Z,5.97
2018-07-27T06:06:23.729Z,5.80
2018-07-27T06:06:57.929Z,6.17
2018-07-27T06:07:32.435Z,6.30
2018-07-27T06:08:06.774Z,6.23
2018-07-27T06:08:40.645Z,7.00
2018-07-27T06:09:14.667Z,6.90
2018-07-27T06:09:48.869Z,7.37
2018-07-27T06:10:22.763Z,6.57
2018-07-27T06:10:56.635Z,6.30
2018-07-27T06:11:30.826Z,6.90
2018-07-27T06:12:04.677Z,6.63
2018-07-27T06:12:38.851Z,7.47
2018-07-27T06:13:13.081Z,7.40
2018-07-27T06:13:46.978Z,6.90
2018-07-27T06:14:20.841Z,6.80
2018-07-27T06:14:54.705Z,5.83
2018-07-27T06:15:28.635Z,7.07
2018-07-27T06:16:02.867Z,6.77
2018-07-27T06:16:36.729Z,6.83
2018-07-27T06:17:10.671Z,7.10
2018-07-27T06:17:44.910Z,6.63
2018-07-27T06:18:19.258Z,7.57
2018-07-27T06:18:53.141Z,7.53
2018-07-27T06:19:26.981Z,6.87
2018-07-27T06:20:00.805Z,7.20
2018-07-27T06:20:35.331Z,7.00
2018-07-27T06:21:09.548Z,7.77
2018-07-27T06:21:43.426Z,7.27
2018-07-27T06:22:17.277Z,7.47
2018-07-27T06:22:51.578Z,6.13
2018-07-27T06:23:25.765Z,7.30
2018-07-27T06:23:59.721Z,6.90
2018-07-27T06:24:49.069Z,7.63
2018-07-27T06:25:22.982Z,7.50
2018-07-27T06:25:56.891Z,7.33
2018-07-27T06:26:30.815Z,7.43
2018-07-27T06:27:05.432Z,7.73
2018-07-27T06:27:39.270Z,7.90
2018-07-27T06:28:13.459Z,7.63
2018-07-27T06:28:48.196Z,8.40
2018-07-27T06:29:22.067Z,7.57
2018-07-27T06:29:56.825Z,6.73
2018-07-27T06:30:30.857Z,8.10
2018-07-27T06:31:05.098Z,7.90
2018-07-27T06:31:39.357Z,7.07
2018-07-27T06:32:13.983Z,7.53
2018-07-27T06:32:48.258Z,7.43
2018-07-27T06:33:22.127Z,7.80
2018-07-27T06:33:56.636Z,7.63
2018-07-27T06:34:30.468Z,7.27
2018-07-27T06:35:04.416Z,7.07
2018-07-27T06:35:38.302Z,7.10
2018-07-27T06:36:12.146Z,7.00
2018-07-27T06:36:46.334Z,7.57
2018-07-27T06:37:20.554Z,6.43
2018-07-27T06:37:54.748Z,6.70
2018-07-27T06:38:28.734Z,7.23
2018-07-27T06:39:02.865Z,6.90
2018-07-27T06:39:36.926Z,6.47
2018-07-27T06:40:11.447Z,6.87
2018-07-27T06:40:45.600Z,6.60
2018-07-27T06:41:19.793Z,7.00
2018-07-27T06:41:54.355Z,7.33
2018-07-27T06:42:28.193Z,6.50
2018-07-27T06:43:02.006Z,7.30
2018-07-27T06:43:36.202Z,7.83
2018-07-27T06:44:10.093Z,7.50
2018-07-27T06:44:43.995Z,6.67
2018-07-27T06:45:17.928Z,6.97
2018-07-27T06:45:52.249Z,6.87
2018-07-27T06:46:26.133Z,7.30
2018-07-27T06:47:00.040Z,6.80
2018-07-27T06:47:33.886Z,6.90
2018-07-27T06:48:12.258Z,6.00
2018-07-27T06:48:46.436Z,6.60
2018-07-27T06:49:20.305Z,6.47
2018-07-27T06:49:54.520Z,6.30
2018-07-27T06:50:28.757Z,6.10
2018-07-27T06:51:02.977Z,6.83
2018-07-27T06:51:37.216Z,6.13
2018-07-27T06:52:11.061Z,5.90
2018-07-27T06:52:44.976Z,6.40
2018-07-27T06:53:19.491Z,6.20
2018-07-27T06:53:53.354Z,6.33
2018-07-27T06:54:27.594Z,6.60
2018-07-27T06:55:01.475Z,6.27
2018-07-27T06:55:35.501Z,6.20
2018-07-27T06:56:09.688Z,5.77
2018-07-27T06:56:43.875Z,6.37
2018-07-27T06:57:17.745Z,6.13
2018-07-27T06:57:52.375Z,5.87
2018-07-27T06:58:26.204Z,6.70
2018-07-27T06:59:00.408Z,6.60
2018-07-27T06:59:34.262Z,6.20
2018-07-27T07:00:08.500Z,5.37
2018-07-27T07:00:42.374Z,6.00
2018-07-27T07:01:16.558Z,6.10
2018-07-27T07:01:51.140Z,6.20
2018-07-27T07:02:25.022Z,6.50
2018-07-27T07:02:58.895Z,6.70
2018-07-27T07:03:32.836Z,6.30
2018-07-27T07:04:07.184Z,6.83
2018-07-27T07:04:41.076Z,6.53
2018-07-27T07:05:14.983Z,6.10
2018-07-27T07:05:49.494Z,6.23
2018-07-27T07:06:23.812Z,6.13
2018-07-27T07:06:57.697Z,5.70
2018-07-27T07:07:31.940Z,6.03
2018-07-27T07:08:05.847Z,6.50
2018-07-27T07:08:39.704Z,5.57
2018-07-27T07:09:13.908Z,6.87
2018-07-27T07:09:47.744Z,5.80
2018-07-27T07:10:21.586Z,5.53
2018-07-27T07:10:55.436Z,6.27
2018-07-27T07:11:29.594Z,5.57
2018-07-27T07:12:03.448Z,6.10
2018-07-27T07:12:37.320Z,5.33
2018-07-27T07:13:11.180Z,6.03
2018-07-27T07:13:45.038Z,6.13
2018-07-27T07:14:18.876Z,5.63
2018-07-27T07:14:53.048Z,5.83
2018-07-27T07:15:26.872Z,5.90
2018-07-27T07:16:00.702Z,5.23
2018-07-27T07:16:36.116Z,5.40
2018-07-27T07:17:10.648Z,6.03
2018-07-27T07:17:44.868Z,5.90
2018-07-27T07:18:18.749Z,5.60
2018-07-27T07:18:52.652Z,5.70
2018-07-27T07:19:26.509Z,5.80
2018-07-27T07:20:00.384Z,5.20
2018-07-27T07:20:34.608Z,5.10
2018-07-27T07:21:08.490Z,6.70
2018-07-27T07:21:43.052Z,5.43
2018-07-27T07:22:16.892Z,5.87
2018-07-27T07:22:51.306Z,5.30
2018-07-27T07:23:25.211Z,5.63
2018-07-27T07:23:59.566Z,6.00
2018-07-27T07:24:33.442Z,5.47
2018-07-27T07:25:07.369Z,6.03
2018-07-27T07:25:41.568Z,5.37
2018-07-27T07:26:15.689Z,5.20
2018-07-27T07:26:49.973Z,5.37
2018-07-27T07:27:23.814Z,5.47
2018-07-27T07:27:57.728Z,5.40
2018-07-27T07:28:31.610Z,5.30
2018-07-27T07:29:06.293Z,5.93
2018-07-27T07:29:40.152Z,4.63
2018-07-27T07:30:14.353Z,5.97
2018-07-27T07:30:48.212Z,5.63